Time;durP1;ratioP1;P1;durP2;ratioP2;P2;SDS_P1;SDS_P2;PMS_P1;PMS_P2;Temp;Humidity;BMP_temperature;BMP_pressure;BME280_temperature;BME280_humidity;BME280_pressure;Samples;Min_cycle;Max_cycle;Signal;HPM_P1;HPM_P2
2021/05/07 00:00:57;;;;;;;;;;;;;;;;;;5009879;28;20024;-66
2021/05/07 00:03:23;;;;;;;;;;;;;;;;;;5010752;28;20349;-66
2021/05/07 00:05:54;;;;;;;;;;;;;;;;;;5008574;28;19932;-66
2021/05/07 00:08:21;;;;;;;;;;;;;;;;;;5008773;28;20451;-66
2021/05/07 00:10:47;;;;;;;;;;;;;;;;;;5011666;28;20030;-66
2021/05/07 00:13:14;;;;;;;;;;;;;;;;;;5010079;28;19929;-65
2021/05/07 00:15:40;;;;;;;;;;;;;;;;;;5006344;28;19926;-70
2021/05/07 00:18:07;;;;;;;;;;;;;;;;;;5009493;28;20028;-65
2021/05/07 00:20:33;;;;;;;;;;;;;;;;;;5012455;28;19925;-66
2021/05/07 00:23:00;;;;;;;;;;;;;;;;;;5013770;28;20352;-66
2021/05/07 00:25:26;;;;;;;;;;;;;;;;;;5011797;28;20075;-66
2021/05/07 00:27:53;;;;;;;;;;;;;;;;;;5009082;28;19925;-67
2021/05/07 00:30:19;;;;;;;;;;;;;;;;;;5008366;28;20317;-67
2021/05/07 00:32:46;;;;;;;;;;;;;;;;;;5007345;28;19936;-65
2021/05/07 00:35:12;;;;;;;;;;;;;;;;;;5045260;22;19925;-65
2021/05/07 00:37:39;;;;;;;;;;;;;;;;;;5034094;28;20361;-66
2021/05/07 00:40:05;;;;;;;;;;;;;;;;;;5032516;28;19936;-66
2021/05/07 00:42:32;;;;;;;;;;;;;;;;;;5038257;28;19952;-66
2021/05/07 00:44:59;;;;;;;;;;;;;;;;;;5028167;28;19925;-66
2021/05/07 00:47:25;;;;;;;;;;;;;;;;;;5030490;28;20011;-66
2021/05/07 00:49:52;;;;;;;;;;;;;;;;;;5030902;28;20478;-66
2021/05/07 00:52:18;;;;;;;;;;;;;;;;;;5031907;28;19965;-66
2021/05/07 00:54:45;;;;;;;;;;;;;;;;;;5027490;28;19925;-66
2021/05/07 00:57:11;;;;;;;;;;;;;;;;;;5027989;28;19929;-66
2021/05/07 00:59:37;;;;;;;;;;;;;;;;;;5031274;28;19931;-66
2021/05/07 01:02:04;;;;;;;;;;;;;;;;;;5031744;28;19936;-66
2021/05/07 01:04:30;;;;;;;;;;;;;;;;;;5032929;28;19931;-66
2021/05/07 01:06:57;;;;;;;;;;;;;;;;;;5031072;28;20020;-66
2021/05/07 01:09:23;;;;;;;;;;;;;;;;;;5032020;28;19925;-66
2021/05/07 01:11:50;;;;;;;;;;;;;;;;;;5032137;28;19925;-66
2021/05/07 01:14:16;;;;;;;;;;;;;;;;;;5015059;28;19926;-66
2021/05/07 01:16:43;;;;;;;;;;;;;;;;;;5020176;28;19929;-67
2021/05/07 01:19:13;;;;;;;;;;;;;;;;;;5019958;28;19978;-66
2021/05/07 01:21:40;;;;;;;;;;;;;;;;;;5017065;28;20020;-66
2021/05/07 01:24:06;;;;;;;;;;;;;;;;;;5028571;28;20209;-67
2021/05/07 01:26:33;;;;;;;;;;;;;;;;;;5030622;28;19925;-65
2021/05/07 01:28:59;;;;;;;;;;;;;;;;;;5025625;28;20636;-66
2021/05/07 01:31:26;;;;;;;;;;;;;;;;;;5026256;28;19925;-66
2021/05/07 01:33:52;;;;;;;;;;;;;;;;;;5024991;28;19936;-68
2021/05/07 01:36:19;;;;;;;;;;;;;;;;;;5025266;28;19925;-66
2021/05/07 01:38:45;;;;;;;;;;;;;;;;;;5030823;28;20015;-66
2021/05/07 01:41:12;;;;;;;;;;;;;;;;;;5024893;28;20019;-66
2021/05/07 01:43:38;;;;;;;;;;;;;;;;;;5030819;28;19925;-66
2021/05/07 01:46:05;;;;;;;;;;;;;;;;;;5023415;28;19932;-66
2021/05/07 01:48:31;;;;;;;;;;;;;;;;;;5026650;28;20396;-66
2021/05/07 01:50:58;;;;;;;;;;;;;;;;;;5031033;28;19925;-66
2021/05/07 01:53:24;;;;;;;;;;;;;;;;;;5030235;28;20701;-66
2021/05/07 01:55:51;;;;;;;;;;;;;;;;;;5030759;28;19925;-66
2021/05/07 01:58:17;;;;;;;;;;;;;;;;;;5027726;28;20357;-66
2021/05/07 02:00:44;;;;;;;;;;;;;;;;;;5031931;28;19925;-66
2021/05/07 02:03:11;;;;;;;;;;;;;;;;;;5032787;28;19925;-66
2021/05/07 02:05:37;;;;;;;;;;;;;;;;;;5032351;28;20266;-66
2021/05/07 02:08:04;;;;;;;;;;;;;;;;;;5027426;28;19983;-66
2021/05/07 02:10:30;;;;;;;;;;;;;;;;;;5031255;28;19979;-67
2021/05/07 02:12:57;;;;;;;;;;;;;;;;;;5030773;28;19929;-66
2021/05/07 02:15:24;;;;;;;;;;;;;;;;;;5031422;28;20403;-66
2021/05/07 02:17:51;;;;;;;;;;;;;;;;;;5025517;28;19926;-65
2021/05/07 02:20:20;;;;;;;;;;;;;;;;;;5031461;28;20291;-65
2021/05/07 02:22:46;;;;;;;;;;;;;;;;;;5032349;28;19933;-66
2021/05/07 02:25:13;;;;;;;;;;;;;;;;;;5030542;28;19929;-65
2021/05/07 02:27:39;;;;;;;;;;;;;;;;;;5031172;28;19925;-65
2021/05/07 02:30:06;;;;;;;;;;;;;;;;;;5031537;28;19925;-66
2021/05/07 02:32:32;;;;;;;;;;;;;;;;;;5023393;28;19926;-66
2021/05/07 02:34:59;;;;;;;;;;;;;;;;;;5026101;28;19925;-66
2021/05/07 02:37:25;;;;;;;;;;;;;;;;;;5031011;28;20286;-66
2021/05/07 02:39:52;;;;;;;;;;;;;;;;;;5027061;28;19935;-65
2021/05/07 02:42:18;;;;;;;;;;;;;;;;;;5028562;28;19925;-65
2021/05/07 02:44:45;;;;;;;;;;;;;;;;;;5030607;28;19933;-66
2021/05/07 02:47:11;;;;;;;;;;;;;;;;;;5028860;28;19929;-66
2021/05/07 02:49:38;;;;;;;;;;;;;;;;;;5022449;28;19929;-66
2021/05/07 02:52:04;;;;;;;;;;;;;;;;;;5023910;28;19932;-67
2021/05/07 02:54:31;;;;;;;;;;;;;;;;;;5022516;28;20421;-66
2021/05/07 02:56:57;;;;;;;;;;;;;;;;;;5023053;28;19978;-66
2021/05/07 02:59:24;;;;;;;;;;;;;;;;;;5024709;28;19947;-66
2021/05/07 03:01:50;;;;;;;;;;;;;;;;;;5027640;28;19932;-66
2021/05/07 03:04:18;;;;;;;;;;;;;;;;;;5018974;28;20320;-66
2021/05/07 03:06:44;;;;;;;;;;;;;;;;;;5020977;28;19955;-65
2021/05/07 03:09:11;;;;;;;;;;;;;;;;;;5030176;28;19936;-66
2021/05/07 03:11:38;;;;;;;;;;;;;;;;;;5029658;28;19925;-66
2021/05/07 03:14:04;;;;;;;;;;;;;;;;;;5030767;28;19925;-66
2021/05/07 03:16:31;;;;;;;;;;;;;;;;;;5027524;28;19933;-66
2021/05/07 03:18:57;;;;;;;;;;;;;;;;;;5030877;28;20021;-66
2021/05/07 03:21:24;;;;;;;;;;;;;;;;;;5022689;28;20565;-66
2021/05/07 03:23:50;;;;;;;;;;;;;;;;;;5023076;28;19932;-66
2021/05/07 03:26:17;;;;;;;;;;;;;;;;;;5030917;28;19932;-66
2021/05/07 03:28:43;;;;;;;;;;;;;;;;;;5024057;28;19925;-66
2021/05/07 03:31:10;;;;;;;;;;;;;;;;;;5022746;28;20420;-66
2021/05/07 03:33:36;;;;;;;;;;;;;;;;;;5029713;28;19978;-66
2021/05/07 03:36:03;;;;;;;;;;;;;;;;;;5030934;28;20364;-66
2021/05/07 03:38:29;;;;;;;;;;;;;;;;;;5027777;28;19929;-66
2021/05/07 03:40:56;;;;;;;;;;;;;;;;;;5028808;28;19986;-66
2021/05/07 03:43:22;;;;;;;;;;;;;;;;;;5022198;28;19987;-66
2021/05/07 03:45:49;;;;;;;;;;;;;;;;;;5027293;28;20019;-66
2021/05/07 03:48:17;;;;;;;;;;;;;;;;;;5025376;28;19925;-66
2021/05/07 03:50:44;;;;;;;;;;;;;;;;;;5029391;28;19929;-66
2021/05/07 03:53:10;;;;;;;;;;;;;;;;;;5028807;28;19940;-66
2021/05/07 03:55:37;;;;;;;;;;;;;;;;;;5029935;28;20460;-66
2021/05/07 03:58:03;;;;;;;;;;;;;;;;;;5029122;28;19936;-66
2021/05/07 04:00:30;;;;;;;;;;;;;;;;;;5030564;28;20003;-67
2021/05/07 04:02:56;;;;;;;;;;;;;;;;;;5020518;28;19925;-66
2021/05/07 04:05:23;;;;;;;;;;;;;;;;;;5031654;28;19935;-66
2021/05/07 04:07:57;;;;;;;;;;;;;;;;;;5028038;28;19972;-67
2021/05/07 04:10:24;;;;;;;;;;;;;;;;;;5029167;28;19964;-65
2021/05/07 04:15:35;;;;;;;;;;;;;;;;;;5029691;28;20064;-67
2021/05/07 04:18:02;;;;;;;;;;;;;;;;;;5029651;28;19932;-67
2021/05/07 04:20:28;;;;;;;;;;;;;;;;;;5030119;28;19925;-66
2021/05/07 04:22:54;;;;;;;;;;;;;;;;;;5030220;28;19925;-66
2021/05/07 04:25:21;;;;;;;;;;;;;;;;;;5028404;28;20311;-66
2021/05/07 04:27:47;;;;;;;;;;;;;;;;;;5022139;28;20376;-67
2021/05/07 04:30:14;;;;;;;;;;;;;;;;;;5029816;28;20335;-66
2021/05/07 04:32:40;;;;;;;;;;;;;;;;;;5025809;28;19933;-66
2021/05/07 04:35:08;;;;;;;;;;;;;;;;;;5030145;28;19925;-65
2021/05/07 04:37:34;;;;;;;;;;;;;;;;;;5031342;28;20412;-66
2021/05/07 04:40:03;;;;;;;;;;;;;;;;;;5030178;28;19935;-66
2021/05/07 04:42:32;;;;;;;;;;;;;;;;;;5027834;28;19933;-66
2021/05/07 04:44:59;;;;;;;;;;;;;;;;;;5031640;28;19925;-65
2021/05/07 04:47:25;;;;;;;;;;;;;;;;;;5025976;28;19931;-65
2021/05/07 04:49:52;;;;;;;;;;;;;;;;;;5030715;28;19929;-64
2021/05/07 04:52:18;;;;;;;;;;;;;;;;;;5036838;28;19921;-64
2021/05/07 04:54:44;;;;;;;;;;;;;;;;;;5047305;28;19948;-65
2021/05/07 04:57:11;;;;;;;;;;;;;;;;;;5046275;28;20072;-65
2021/05/07 04:59:37;;;;;;;;;;;;;;;;;;5033928;28;19925;-65
2021/05/07 05:02:04;;;;;;;;;;;;;;;;;;5040576;28;19932;-65
2021/05/07 05:04:32;;;;;;;;;;;;;;;;;;5039851;28;19933;-65
2021/05/07 05:06:58;;;;;;;;;;;;;;;;;;5047516;28;19936;-65
2021/05/07 05:09:25;;;;;;;;;;;;;;;;;;5049349;28;19925;-65
2021/05/07 05:11:51;;;;;;;;;;;;;;;;;;5035597;28;19929;-65
2021/05/07 05:14:18;;;;;;;;;;;;;;;;;;5029329;28;19933;-65
2021/05/07 05:16:44;;;;;;;;;;;;;;;;;;5031393;28;19955;-65
2021/05/07 05:19:11;;;;;;;;;;;;;;;;;;5028146;28;20477;-66
2021/05/07 05:21:37;;;;;;;;;;;;;;;;;;5027805;28;19976;-65
2021/05/07 05:24:03;;;;;;;;;;;;;;;;;;5034154;28;19932;-67
2021/05/07 05:26:30;;;;;;;;;;;;;;;;;;5027590;28;19929;-66
2021/05/07 05:28:56;;;;;;;;;;;;;;;;;;5031025;28;19925;-65
2021/05/07 05:31:23;;;;;;;;;;;;;;;;;;5027203;28;20344;-68
2021/05/07 05:33:49;;;;;;;;;;;;;;;;;;5031633;28;19954;-65
2021/05/07 05:36:16;;;;;;;;;;;;;;;;;;5029931;28;20202;-66
2021/05/07 05:38:42;;;;;;;;;;;;;;;;;;5032106;28;20305;-65
2021/05/07 05:41:09;;;;;;;;;;;;;;;;;;5029768;28;19925;-66
2021/05/07 05:43:36;;;;;;;;;;;;;;;;;;5024726;28;20072;-66
2021/05/07 05:46:02;;;;;;;;;;;;;;;;;;5023865;28;19959;-65
2021/05/07 05:48:29;;;;;;;;;;;;;;;;;;5027938;28;19955;-66
2021/05/07 05:50:55;;;;;;;;;;;;;;;;;;5026938;28;19925;-65
2021/05/07 05:53:22;;;;;;;;;;;;;;;;;;5026133;28;19939;-65
2021/05/07 05:55:50;;;;;;;;;;;;;;;;;;5024248;28;19931;-65
2021/05/07 05:58:16;;;;;;;;;;;;;;;;;;5024949;28;19925;-65
2021/05/07 06:00:43;;;;;;;;;;;;;;;;;;5028624;28;20370;-65
2021/05/07 06:03:11;;;;;;;;;;;;;;;;;;5023840;28;20055;-66
2021/05/07 06:05:37;;;;;;;;;;;;;;;;;;5022555;28;20453;-65
2021/05/07 06:08:07;;;;;;;;;;;;;;;;;;5024089;28;19932;-65
2021/05/07 06:10:33;;;;;;;;;;;;;;;;;;5025031;28;20024;-65
2021/05/07 06:13:00;;;;;;;;;;;;;;;;;;5021895;28;19979;-65
2021/05/07 06:15:26;;;;;;;;;;;;;;;;;;5023871;28;19933;-65
2021/05/07 06:17:53;;;;;;;;;;;;;;;;;;5024065;28;19971;-65
2021/05/07 06:20:19;;;;;;;;;;;;;;;;;;5021268;28;20393;-65
2021/05/07 06:22:47;;;;;;;;;;;;;;;;;;5026765;28;19976;-65
2021/05/07 06:25:14;;;;;;;;;;;;;;;;;;5025042;28;20393;-64
2021/05/07 06:27:40;;;;;;;;;;;;;;;;;;5021519;28;19926;-65
2021/05/07 06:30:06;;;;;;;;;;;;;;;;;;5020221;28;20330;-65
2021/05/07 06:32:33;;;;;;;;;;;;;;;;;;5023873;28;19925;-65
2021/05/07 06:35:00;;;;;;;;;;;;;;;;;;5045872;23;19933;-67
2021/05/07 06:37:26;;;;;;;;;;;;;;;;;;5034581;28;19932;-67
2021/05/07 06:39:52;;;;;;;;;;;;;;;;;;5039204;28;20281;-67
2021/05/07 06:42:19;;;;;;;;;;;;;;;;;;5034189;28;19933;-68
2021/05/07 06:44:46;;;;;;;;;;;;;;;;;;5036909;28;19948;-66
2021/05/07 06:47:12;;;;;;;;;;;;;;;;;;5029090;28;20304;-67
2021/05/07 06:49:38;;;;;;;;;;;;;;;;;;5034549;28;19924;-68
2021/05/07 06:52:05;;;;;;;;;;;;;;;;;;5031188;28;19925;-65
2021/05/07 06:54:31;;;;;;;;;;;;;;;;;;5034459;28;20011;-68
2021/05/07 06:56:59;;;;;;;;;;;;;;;;;;5025971;28;20439;-66
2021/05/07 06:59:26;;;;;;;;;;;;;;;;;;5033261;28;20295;-69
2021/05/07 07:01:52;;;;;;;;;;;;;;;;;;5029578;28;19925;-67
2021/05/07 07:04:19;;;;;;;;;;;;;;;;;;5035324;28;20016;-67
2021/05/07 07:06:45;;;;;;;;;;;;;;;;;;5027694;28;20020;-68
2021/05/07 07:09:12;;;;;;;;;;;;;;;;;;5032748;28;19968;-67
2021/05/07 07:11:38;;;;;;;;;;;;;;;;;;5026854;28;19933;-68
2021/05/07 07:14:05;;;;;;;;;;;;;;;;;;5026300;28;19925;-68
2021/05/07 07:16:31;;;;;;;;;;;;;;;;;;5033693;28;19948;-69
2021/05/07 07:18:58;;;;;;;;;;;;;;;;;;5033004;28;20425;-67
2021/05/07 07:21:24;;;;;;;;;;;;;;;;;;5033410;28;19929;-67
2021/05/07 07:23:51;;;;;;;;;;;;;;;;;;5032872;28;20368;-68
2021/05/07 07:26:17;;;;;;;;;;;;;;;;;;5027527;28;19931;-68
2021/05/07 07:28:48;;;;;;;;;;;;;;;;;;5030961;28;20476;-68
2021/05/07 07:31:14;;;;;;;;;;;;;;;;;;5031393;28;19926;-68
2021/05/07 07:33:41;;;;;;;;;;;;;;;;;;5030269;28;19925;-67
2021/05/07 07:36:07;;;;;;;;;;;;;;;;;;5031839;28;19925;-67
2021/05/07 07:38:34;;;;;;;;;;;;;;;;;;5031490;28;19932;-69
2021/05/07 07:41:00;;;;;;;;;;;;;;;;;;5032142;28;19936;-68
2021/05/07 07:43:27;;;;;;;;;;;;;;;;;;5029567;28;19955;-67
2021/05/07 07:45:53;;;;;;;;;;;;;;;;;;5026726;28;19929;-67
2021/05/07 07:48:20;;;;;;;;;;;;;;;;;;5027005;28;19929;-66
2021/05/07 07:50:46;;;;;;;;;;;;;;;;;;5026673;28;20016;-68
2021/05/07 07:53:13;;;;;;;;;;;;;;;;;;5030089;28;19972;-67
2021/05/07 07:55:39;;;;;;;;;;;;;;;;;;5026031;28;19929;-66
2021/05/07 07:58:08;;;;;;;;;;;;;;;;;;5028834;28;20010;-65
2021/05/07 08:00:34;;;;;;;;;;;;;;;;;;5027470;28;20294;-69
2021/05/07 08:03:01;;;;;;;;;;;;;;;;;;5029718;28;19936;-68
2021/05/07 08:05:27;;;;;;;;;;;;;;;;;;5028047;28;19939;-68
2021/05/07 08:07:54;;;;;;;;;;;;;;;;;;5035698;28;19943;-67
2021/05/07 08:10:20;;;;;;;;;;;;;;;;;;5030845;28;20028;-69
2021/05/07 08:12:47;;;;;;;;;;;;;;;;;;5033848;28;19925;-68
2021/05/07 08:15:13;;;;;;;;;;;;;;;;;;5029649;28;20300;-68
2021/05/07 08:17:40;;;;;;;;;;;;;;;;;;5026293;28;20027;-68
2021/05/07 08:20:06;;;;;;;;;;;;;;;;;;5032000;28;20019;-67
2021/05/07 08:22:33;;;;;;;;;;;;;;;;;;5035064;28;20017;-68
2021/05/07 08:24:59;;;;;;;;;;;;;;;;;;5035062;28;19925;-69
2021/05/07 08:27:26;;;;;;;;;;;;;;;;;;5026833;28;20359;-68
2021/05/07 08:29:52;;;;;;;;;;;;;;;;;;5030808;28;19973;-68
2021/05/07 08:32:19;;;;;;;;;;;;;;;;;;5037240;28;20404;-69
2021/05/07 08:34:45;;;;;;;;;;;;;;;;;;5039322;28;19925;-70
2021/05/07 08:37:12;;;;;;;;;;;;;;;;;;5029106;28;19925;-69
2021/05/07 08:39:38;;;;;;;;;;;;;;;;;;5035929;28;20428;-72
2021/05/07 08:42:05;;;;;;;;;;;;;;;;;;5030097;28;20012;-70
2021/05/07 08:44:31;;;;;;;;;;;;;;;;;;5038273;28;19947;-70
2021/05/07 08:46:58;;;;;;;;;;;;;;;;;;5029585;28;19933;-69
2021/05/07 08:49:24;;;;;;;;;;;;;;;;;;5034515;28;19925;-69
2021/05/07 08:51:51;;;;;;;;;;;;;;;;;;5031212;28;20031;-70
2021/05/07 08:54:17;;;;;;;;;;;;;;;;;;5033618;28;19932;-70
2021/05/07 08:56:44;;;;;;;;;;;;;;;;;;5028655;28;20016;-69
2021/05/07 08:59:10;;;;;;;;;;;;;;;;;;5028393;28;20408;-68
2021/05/07 09:01:37;;;;;;;;;;;;;;;;;;5031698;28;19943;-68
2021/05/07 09:04:03;;;;;;;;;;;;;;;;;;5024339;28;20282;-68
2021/05/07 09:06:30;;;;;;;;;;;;;;;;;;5022739;28;19987;-68
2021/05/07 09:08:56;;;;;;;;;;;;;;;;;;5027912;28;20314;-68
2021/05/07 09:11:23;;;;;;;;;;;;;;;;;;5027114;28;19936;-69
2021/05/07 09:13:49;;;;;;;;;;;;;;;;;;5034752;28;19932;-68
2021/05/07 09:16:16;;;;;;;;;;;;;;;;;;5025514;28;19929;-71
2021/05/07 09:18:42;;;;;;;;;;;;;;;;;;5036546;28;20397;-71
2021/05/07 09:21:09;;;;;;;;;;;;;;;;;;5037152;28;19976;-70
2021/05/07 09:23:35;;;;;;;;;;;;;;;;;;5036421;28;19986;-70
2021/05/07 09:26:02;;;;;;;;;;;;;;;;;;5028403;28;20676;-71
2021/05/07 09:28:28;;;;;;;;;;;;;;;;;;5032790;28;19925;-71
2021/05/07 09:30:55;;;;;;;;;;;;;;;;;;5036740;28;19982;-71
2021/05/07 09:33:21;;;;;;;;;;;;;;;;;;5033798;28;19925;-73
2021/05/07 09:35:49;;;;;;;;;;;;;;;;;;5030772;28;20295;-70
2021/05/07 09:38:16;;;;;;;;;;;;;;;;;;5034374;28;20407;-70
2021/05/07 09:40:42;;;;;;;;;;;;;;;;;;5026324;28;19925;-70
2021/05/07 09:43:09;;;;;;;;;;;;;;;;;;5033569;28;19972;-70
2021/05/07 09:45:35;;;;;;;;;;;;;;;;;;5029565;28;19979;-70
2021/05/07 09:48:02;;;;;;;;;;;;;;;;;;5034960;28;19937;-70
2021/05/07 09:50:28;;;;;;;;;;;;;;;;;;5032384;28;19933;-70
2021/05/07 09:52:55;;;;;;;;;;;;;;;;;;5036982;28;19955;-70
2021/05/07 09:55:22;;;;;;;;;;;;;;;;;;5030993;28;20278;-70
2021/05/07 09:57:49;;;;;;;;;;;;;;;;;;5034831;28;20166;-70
2021/05/07 10:00:15;;;;;;;;;;;;;;;;;;5032044;28;20008;-70
2021/05/07 10:02:42;;;;;;;;;;;;;;;;;;5032027;28;20011;-70
2021/05/07 10:05:08;;;;;;;;;;;;;;;;;;5031314;28;19929;-71
2021/05/07 10:07:35;;;;;;;;;;;;;;;;;;5030547;28;19929;-70
2021/05/07 10:10:01;;;;;;;;;;;;;;;;;;5033325;28;20012;-70
2021/05/07 10:12:28;;;;;;;;;;;;;;;;;;5034534;28;20008;-70
2021/05/07 10:14:54;;;;;;;;;;;;;;;;;;5032742;28;20023;-70
2021/05/07 10:17:21;;;;;;;;;;;;;;;;;;5027661;28;19929;-70
2021/05/07 10:19:47;;;;;;;;;;;;;;;;;;5031075;28;19925;-70
2021/05/07 10:22:14;;;;;;;;;;;;;;;;;;5032661;28;20011;-70
2021/05/07 10:24:42;;;;;;;;;;;;;;;;;;5034018;28;19933;-70
2021/05/07 10:27:09;;;;;;;;;;;;;;;;;;5029492;28;20000;-70
2021/05/07 10:29:35;;;;;;;;;;;;;;;;;;5032786;28;19925;-70
2021/05/07 10:32:02;;;;;;;;;;;;;;;;;;5032747;28;19929;-70
2021/05/07 10:34:29;;;;;;;;;;;;;;;;;;5034129;28;19924;-70
2021/05/07 10:36:55;;;;;;;;;;;;;;;;;;5028041;28;19932;-71
2021/05/07 10:39:22;;;;;;;;;;;;;;;;;;5036171;28;19947;-71
2021/05/07 10:41:48;;;;;;;;;;;;;;;;;;5031253;28;20341;-71
2021/05/07 10:44:15;;;;;;;;;;;;;;;;;;5033618;28;19925;-69
2021/05/07 10:46:41;;;;;;;;;;;;;;;;;;5032657;28;19925;-70
2021/05/07 10:49:08;;;;;;;;;;;;;;;;;;5029232;28;19928;-70
2021/05/07 10:51:34;;;;;;;;;;;;;;;;;;5031030;28;19933;-70
2021/05/07 10:54:01;;;;;;;;;;;;;;;;;;5031476;28;20016;-70
2021/05/07 10:56:27;;;;;;;;;;;;;;;;;;5032943;28;20301;-70
2021/05/07 10:58:54;;;;;;;;;;;;;;;;;;5033600;28;19929;-70
2021/05/07 11:01:20;;;;;;;;;;;;;;;;;;5026638;28;20059;-71
2021/05/07 11:03:47;;;;;;;;;;;;;;;;;;5026648;28;20447;-71
2021/05/07 11:06:17;;;;;;;;;;;;;;;;;;5026074;28;19931;-71
2021/05/07 11:08:44;;;;;;;;;;;;;;;;;;5033021;28;19932;-70
2021/05/07 11:11:10;;;;;;;;;;;;;;;;;;5031967;28;19969;-71
2021/05/07 11:13:37;;;;;;;;;;;;;;;;;;5033184;28;20361;-70
2021/05/07 11:16:03;;;;;;;;;;;;;;;;;;5026553;28;19932;-70
2021/05/07 11:18:30;;;;;;;;;;;;;;;;;;5030983;28;20309;-71
2021/05/07 11:20:57;;;;;;;;;;;;;;;;;;5033200;28;19925;-71
2021/05/07 11:23:23;;;;;;;;;;;;;;;;;;5033421;28;19942;-69
2021/05/07 11:25:50;;;;;;;;;;;;;;;;;;5030432;28;20183;-70
2021/05/07 11:28:17;;;;;;;;;;;;;;;;;;5025067;28;20027;-69
2021/05/07 11:30:44;;;;;;;;;;;;;;;;;;5029503;28;20015;-70
2021/05/07 11:33:10;;;;;;;;;;;;;;;;;;5028895;28;20028;-69
2021/05/07 11:35:37;;;;;;;;;;;;;;;;;;5027478;28;19936;-71
2021/05/07 11:38:03;;;;;;;;;;;;;;;;;;5035109;28;19925;-70
2021/05/07 11:40:30;;;;;;;;;;;;;;;;;;5035081;28;19939;-70
2021/05/07 11:42:56;;;;;;;;;;;;;;;;;;5035689;28;20019;-72
2021/05/07 11:45:23;;;;;;;;;;;;;;;;;;5026111;28;20009;-71
2021/05/07 11:47:49;;;;;;;;;;;;;;;;;;5032973;28;20341;-69
2021/05/07 11:50:16;;;;;;;;;;;;;;;;;;5034913;28;20019;-70
2021/05/07 11:52:42;;;;;;;;;;;;;;;;;;5036548;28;19925;-70
2021/05/07 11:55:09;;;;;;;;;;;;;;;;;;5032019;28;19932;-69
2021/05/07 11:57:38;;;;;;;;;;;;;;;;;;5029828;28;19933;-69
2021/05/07 12:00:04;;;;;;;;;;;;;;;;;;5029602;28;19936;-70
2021/05/07 12:02:32;;;;;;;;;;;;;;;;;;5024082;28;19928;-68
2021/05/07 12:04:58;;;;;;;;;;;;;;;;;;5034248;28;19936;-69
2021/05/07 12:07:27;;;;;;;;;;;;;;;;;;5024229;28;20032;-68
2021/05/07 12:09:54;;;;;;;;;;;;;;;;;;5035577;28;19925;-69
2021/05/07 12:12:21;;;;;;;;;;;;;;;;;;5030812;28;20582;-70
2021/05/07 12:14:49;;;;;;;;;;;;;;;;;;5040032;28;19925;-70
2021/05/07 12:17:15;;;;;;;;;;;;;;;;;;5028621;28;19925;-70
2021/05/07 12:19:42;;;;;;;;;;;;;;;;;;5033482;28;20344;-69
2021/05/07 12:22:08;;;;;;;;;;;;;;;;;;5035183;28;19983;-69
2021/05/07 12:24:35;;;;;;;;;;;;;;;;;;5039672;28;20023;-68
2021/05/07 12:27:01;;;;;;;;;;;;;;;;;;5038218;28;19929;-69
2021/05/07 12:29:28;;;;;;;;;;;;;;;;;;5039128;28;19927;-70
2021/05/07 12:31:54;;;;;;;;;;;;;;;;;;5037032;28;20211;-69
2021/05/07 12:34:21;;;;;;;;;;;;;;;;;;5056094;22;19924;-64
2021/05/07 12:36:48;;;;;;;;;;;;;;;;;;5036923;28;20396;-65
2021/05/07 12:39:14;;;;;;;;;;;;;;;;;;5041709;28;19976;-65
2021/05/07 12:41:41;;;;;;;;;;;;;;;;;;5038515;28;19931;-65
2021/05/07 12:44:13;;;;;;;;;;;;;;;;;;5041885;28;19928;-66
2021/05/07 12:46:39;;;;;;;;;;;;;;;;;;5032207;28;19933;-65
2021/05/07 12:49:06;;;;;;;;;;;;;;;;;;5035656;28;20296;-65
2021/05/07 12:51:32;;;;;;;;;;;;;;;;;;5033257;28;19980;-65
2021/05/07 12:53:59;;;;;;;;;;;;;;;;;;5033043;28;19925;-66
2021/05/07 12:56:26;;;;;;;;;;;;;;;;;;5031592;28;19925;-66
2021/05/07 12:58:52;;;;;;;;;;;;;;;;;;5031692;28;19976;-66
2021/05/07 13:01:19;;;;;;;;;;;;;;;;;;5039042;28;20012;-68
2021/05/07 13:03:45;;;;;;;;;;;;;;;;;;5039559;28;19980;-66
2021/05/07 13:06:12;;;;;;;;;;;;;;;;;;5036871;28;19929;-65
2021/05/07 13:08:38;;;;;;;;;;;;;;;;;;5044376;28;19925;-65
2021/05/07 13:11:05;;;;;;;;;;;;;;;;;;5037895;28;19969;-65
2021/05/07 13:13:32;;;;;;;;;;;;;;;;;;5035113;28;20075;-65
2021/05/07 13:15:59;;;;;;;;;;;;;;;;;;5030647;28;19925;-65
2021/05/07 13:18:25;;;;;;;;;;;;;;;;;;5036582;28;21793;-67
2021/05/07 13:20:52;;;;;;;;;;;;;;;;;;5038064;28;19935;-68
2021/05/07 13:23:18;;;;;;;;;;;;;;;;;;5032974;28;20007;-67
2021/05/07 13:25:45;;;;;;;;;;;;;;;;;;5025033;28;20253;-67
2021/05/07 13:28:12;;;;;;;;;;;;;;;;;;5032329;28;19925;-67
2021/05/07 13:30:38;;;;;;;;;;;;;;;;;;5025222;28;19933;-67
2021/05/07 13:33:05;;;;;;;;;;;;;;;;;;5031994;28;19978;-64
2021/05/07 13:35:31;;;;;;;;;;;;;;;;;;5028275;28;20412;-67
2021/05/07 13:37:58;;;;;;;;;;;;;;;;;;5034323;28;19932;-65
2021/05/07 13:40:24;;;;;;;;;;;;;;;;;;5042670;28;20776;-65
2021/05/07 13:42:51;;;;;;;;;;;;;;;;;;5040664;28;19944;-66
2021/05/07 13:45:17;;;;;;;;;;;;;;;;;;5037459;28;19964;-65
2021/05/07 13:47:44;;;;;;;;;;;;;;;;;;5031755;28;20014;-64
2021/05/07 13:50:11;;;;;;;;;;;;;;;;;;5029897;28;20352;-67
2021/05/07 13:52:37;;;;;;;;;;;;;;;;;;5030728;28;19968;-65
2021/05/07 13:55:04;;;;;;;;;;;;;;;;;;5033884;28;19925;-65
2021/05/07 13:57:30;;;;;;;;;;;;;;;;;;5028877;28;19926;-65
2021/05/07 13:59:59;;;;;;;;;;;;;;;;;;5026471;28;19968;-66
2021/05/07 14:02:25;;;;;;;;;;;;;;;;;;5026130;28;20318;-66
2021/05/07 14:04:52;;;;;;;;;;;;;;;;;;5026888;28;19986;-66
2021/05/07 14:07:19;;;;;;;;;;;;;;;;;;5030116;28;19926;-65
2021/05/07 14:09:46;;;;;;;;;;;;;;;;;;5028867;28;20356;-65
2021/05/07 14:12:12;;;;;;;;;;;;;;;;;;5025146;28;19928;-66
2021/05/07 14:14:40;;;;;;;;;;;;;;;;;;5026471;28;20307;-65
2021/05/07 14:17:07;;;;;;;;;;;;;;;;;;5030647;28;19960;-65
2021/05/07 14:19:33;;;;;;;;;;;;;;;;;;5028190;28;19947;-66
2021/05/07 14:22:00;;;;;;;;;;;;;;;;;;5025701;28;20365;-66
2021/05/07 14:24:26;;;;;;;;;;;;;;;;;;5027008;28;19925;-66
2021/05/07 14:26:55;;;;;;;;;;;;;;;;;;5026466;28;20071;-66
2021/05/07 14:29:21;;;;;;;;;;;;;;;;;;5026829;28;19936;-66
2021/05/07 14:31:48;;;;;;;;;;;;;;;;;;5029294;28;20454;-66
2021/05/07 14:34:15;;;;;;;;;;;;;;;;;;5031625;28;19936;-66
2021/05/07 14:36:42;;;;;;;;;;;;;;;;;;5027806;28;20079;-67
2021/05/07 14:39:08;;;;;;;;;;;;;;;;;;5028555;28;19929;-67
2021/05/07 14:41:35;;;;;;;;;;;;;;;;;;5029268;28;19929;-67
2021/05/07 14:44:01;;;;;;;;;;;;;;;;;;5026517;28;20165;-66
2021/05/07 14:46:28;;;;;;;;;;;;;;;;;;5023304;28;19936;-67
2021/05/07 14:48:54;;;;;;;;;;;;;;;;;;5028251;28;20036;-66
2021/05/07 14:51:21;;;;;;;;;;;;;;;;;;5025903;28;19931;-66
2021/05/07 14:53:47;;;;;;;;;;;;;;;;;;5028500;28;20455;-65
2021/05/07 14:56:14;;;;;;;;;;;;;;;;;;5027559;28;20187;-66
2021/05/07 14:58:40;;;;;;;;;;;;;;;;;;5033327;28;19982;-66
2021/05/07 15:01:07;;;;;;;;;;;;;;;;;;5031571;28;19924;-66
2021/05/07 15:03:33;;;;;;;;;;;;;;;;;;5023317;28;19929;-66
2021/05/07 15:06:01;;;;;;;;;;;;;;;;;;5026044;28;20304;-66
2021/05/07 15:08:28;;;;;;;;;;;;;;;;;;5029619;28;19968;-66
2021/05/07 15:10:56;;;;;;;;;;;;;;;;;;5031647;28;20015;-66
2021/05/07 15:13:22;;;;;;;;;;;;;;;;;;5026271;28;19972;-66
2021/05/07 15:15:49;;;;;;;;;;;;;;;;;;5029841;28;20037;-66
2021/05/07 15:18:15;;;;;;;;;;;;;;;;;;5031671;28;19925;-67
2021/05/07 15:20:43;;;;;;;;;;;;;;;;;;5032972;28;19975;-67
2021/05/07 15:23:09;;;;;;;;;;;;;;;;;;5032037;28;19926;-67
2021/05/07 15:25:36;;;;;;;;;;;;;;;;;;5029347;28;20050;-66
2021/05/07 15:28:02;;;;;;;;;;;;;;;;;;5032669;28;19925;-65
2021/05/07 15:30:29;;;;;;;;;;;;;;;;;;5037063;28;20048;-65
2021/05/07 15:32:55;;;;;;;;;;;;;;;;;;5038232;28;20445;-66
2021/05/07 15:35:22;;;;;;;;;;;;;;;;;;5034547;28;19925;-66
2021/05/07 15:37:49;;;;;;;;;;;;;;;;;;5038773;28;20090;-69
2021/05/07 15:40:15;;;;;;;;;;;;;;;;;;5036752;28;19925;-66
2021/05/07 15:42:42;;;;;;;;;;;;;;;;;;5036282;28;19925;-66
2021/05/07 15:45:08;;;;;;;;;;;;;;;;;;5036753;28;19929;-67
2021/05/07 15:47:35;;;;;;;;;;;;;;;;;;5038774;28;19974;-67
2021/05/07 15:50:02;;;;;;;;;;;;;;;;;;5035418;28;19931;-67
2021/05/07 15:52:28;;;;;;;;;;;;;;;;;;5031975;28;19932;-66
2021/05/07 15:54:55;;;;;;;;;;;;;;;;;;5032598;28;19929;-66
2021/05/07 15:57:21;;;;;;;;;;;;;;;;;;5034331;28;19925;-66
2021/05/07 15:59:48;;;;;;;;;;;;;;;;;;5037792;28;19925;-66
2021/05/07 16:02:14;;;;;;;;;;;;;;;;;;5030723;28;19979;-66
2021/05/07 16:04:41;;;;;;;;;;;;;;;;;;5033289;28;20098;-66
2021/05/07 16:07:07;;;;;;;;;;;;;;;;;;5037785;28;20377;-66
2021/05/07 16:09:34;;;;;;;;;;;;;;;;;;5034200;28;19951;-66
2021/05/07 16:12:00;;;;;;;;;;;;;;;;;;5033864;28;19928;-66
2021/05/07 16:14:27;;;;;;;;;;;;;;;;;;5034437;28;19984;-66
2021/05/07 16:16:53;;;;;;;;;;;;;;;;;;5034683;28;20377;-67
2021/05/07 16:19:21;;;;;;;;;;;;;;;;;;5035763;28;19925;-65
2021/05/07 16:21:47;;;;;;;;;;;;;;;;;;5034073;28;20303;-65
2021/05/07 16:24:14;;;;;;;;;;;;;;;;;;5035060;28;19935;-65
2021/05/07 16:26:40;;;;;;;;;;;;;;;;;;5035023;28;19964;-66
2021/05/07 16:29:07;;;;;;;;;;;;;;;;;;5037918;28;19978;-65
2021/05/07 16:31:34;;;;;;;;;;;;;;;;;;5033514;28;19925;-65
2021/05/07 16:34:00;;;;;;;;;;;;;;;;;;5034874;28;19933;-65
2021/05/07 16:36:29;;;;;;;;;;;;;;;;;;5037262;28;20410;-65
2021/05/07 16:38:55;;;;;;;;;;;;;;;;;;5038397;28;19924;-65
2021/05/07 16:41:22;;;;;;;;;;;;;;;;;;5035781;28;20469;-65
2021/05/07 16:43:48;;;;;;;;;;;;;;;;;;5036645;28;20015;-67